Time;durP1;ratioP1;P1;durP2;ratioP2;P2;SDS_P1;SDS_P2;PMS_P1;PMS_P2;Temp;Humidity;BMP_temperature;BMP_pressure;BME280_temperature;BME280_humidity;BME280_pressure;Samples;Min_cycle;Max_cycle;Signal;HPM_P1;HPM_P2
2023/08/22 04:33:28;;;;;;;;;1.00;1.00;;;;;32.54;32.96;101556.53;5078280;28;45536;-61
2023/08/22 04:35:53;;;;;;;;;1.50;1.50;;;;;32.58;32.89;101555.91;5080385;27;45445;-59
2023/08/22 04:38:19;;;;;;;;;2.75;1.50;;;;;32.48;33.04;101549.84;5080181;27;46876;-59
2023/08/22 04:40:44;;;;;;;;;2.00;1.25;;;;;32.54;33.03;101554.59;5080252;27;45508;-60
2023/08/22 04:43:09;;;;;;;;;1.25;1.25;;;;;32.50;33.05;101549.63;5079053;28;45354;-59
2023/08/22 04:45:35;;;;;;;;;2.50;2.50;;;;;32.50;32.50;101550.47;5080303;27;45370;-60
2023/08/22 04:48:00;;;;;;;;;2.00;2.00;;;;;32.53;32.92;101549.25;5079571;27;46461;-60
2023/08/22 04:50:25;;;;;;;;;1.50;1.50;;;;;32.45;32.83;101557.69;5080382;28;45223;-59
2023/08/22 04:52:51;;;;;;;;;2.00;2.00;;;;;32.42;33.40;101556.13;5080021;28;45213;-59
2023/08/22 04:55:16;;;;;;;;;1.75;1.75;;;;;32.40;32.96;101552.72;5080258;28;45279;-59
2023/08/22 04:57:42;;;;;;;;;3.25;1.00;;;;;32.45;32.75;101550.22;5079562;28;45413;-62
2023/08/22 05:00:10;;;;;;;;;4.25;1.75;;;;;32.38;32.91;101565.94;5079198;28;45441;-59
2023/08/22 05:02:36;;;;;;;;;1.75;1.75;;;;;32.39;33.45;101558.47;5079462;28;45438;-59
2023/08/22 05:05:03;;;;;;;;;2.00;2.00;;;;;32.44;33.27;101562.38;5079568;28;45296;-59
2023/08/22 05:07:29;;;;;;;;;1.75;1.75;;;;;32.47;32.93;101561.13;5079581;28;45354;-58
2023/08/22 05:09:54;;;;;;;;;1.00;1.00;;;;;32.51;33.32;101568.00;5079761;28;45422;-60
2023/08/22 05:12:20;;;;;;;;;3.00;1.00;;;;;32.47;33.03;101564.78;5079461;28;45366;-60
2023/08/22 05:14:45;;;;;;;;;1.75;1.75;;;;;32.35;33.84;101554.34;5079896;27;45284;-60
2023/08/22 05:17:11;;;;;;;;;2.00;2.00;;;;;32.45;33.25;101575.19;5078971;28;50305;-59
2023/08/22 05:19:36;;;;;;;;;2.00;2.00;;;;;32.51;33.08;101570.78;5079495;27;45361;-60
2023/08/22 05:22:01;;;;;;;;;0.75;0.75;;;;;32.56;33.16;101583.03;5079650;27;45305;-59
2023/08/22 05:24:27;;;;;;;;;1.00;1.00;;;;;32.51;33.53;101591.06;5079660;27;45464;-60
2023/08/22 05:26:52;;;;;;;;;1.50;1.25;;;;;32.52;33.63;101576.13;5079243;28;45412;-60
2023/08/22 05:29:19;;;;;;;;;1.25;1.25;;;;;32.42;33.08;101572.78;5079310;28;52317;-60
2023/08/22 05:31:44;;;;;;;;;1.00;1.00;;;;;32.46;33.41;101581.63;5078988;27;45301;-60
2023/08/22 05:34:09;;;;;;;;;1.50;1.50;;;;;32.48;33.53;101587.84;5079100;28;45287;-59
2023/08/22 05:36:35;;;;;;;;;1.25;1.25;;;;;32.47;33.11;101591.66;5078386;28;56782;-59
2023/08/22 05:39:00;;;;;;;;;1.75;1.75;;;;;32.48;33.53;101585.94;5079453;28;50451;-60
2023/08/22 05:41:25;;;;;;;;;1.50;1.50;;;;;32.46;32.67;101579.69;5079349;28;48327;-59
2023/08/22 05:43:50;;;;;;;;;1.75;1.75;;;;;32.59;33.51;101593.75;5079339;28;45342;-59
2023/08/22 05:46:16;;;;;;;;;2.75;2.50;;;;;32.60;32.95;101592.69;5079221;28;46047;-59
2023/08/22 05:48:41;;;;;;;;;1.75;1.75;;;;;32.67;33.12;101581.66;5079306;28;45342;-59
2023/08/22 05:51:07;;;;;;;;;2.25;1.00;;;;;32.58;32.73;101572.56;5079244;28;45530;-60
2023/08/22 05:53:32;;;;;;;;;1.00;1.00;;;;;32.57;33.67;101572.81;5078885;27;45340;-59
2023/08/22 05:55:57;;;;;;;;;1.25;1.25;;;;;32.61;33.54;101576.88;5078828;28;46068;-60
2023/08/22 05:58:23;;;;;;;;;1.75;1.75;;;;;32.69;33.04;101590.69;5073976;27;45314;-59
2023/08/22 06:00:49;;;;;;;;;4.25;3.00;;;;;32.69;33.34;101593.47;5076338;28;45360;-60
2023/08/22 06:03:14;;;;;;;;;2.75;2.75;;;;;32.67;32.98;101588.06;5078169;27;45331;-61
2023/08/22 06:05:40;;;;;;;;;3.00;3.00;;;;;32.69;32.88;101599.03;5078667;28;45377;-60
2023/08/22 06:08:05;;;;;;;;;1.25;1.25;;;;;32.67;33.35;101607.50;5079342;28;45315;-61
2023/08/22 06:10:30;;;;;;;;;1.75;1.75;;;;;32.65;33.13;101614.34;5079023;28;45342;-59
2023/08/22 06:12:56;;;;;;;;;3.25;1.75;;;;;32.66;33.26;101614.16;5078760;28;45280;-59
2023/08/22 06:15:22;;;;;;;;;1.50;1.50;;;;;32.73;33.02;101617.03;5078835;27;47339;-60
2023/08/22 06:17:47;;;;;;;;;3.50;2.50;;;;;32.77;33.40;101623.03;5078469;28;45314;-60
2023/08/22 06:20:14;;;;;;;;;4.00;2.75;;;;;32.68;33.43;101617.56;5078738;28;52753;-68
2023/08/22 06:22:40;;;;;;;;;1.00;1.00;;;;;32.66;33.76;101630.81;5079049;28;46163;-69
2023/08/22 06:25:05;;;;;;;;;2.00;2.00;;;;;32.69;33.37;101635.13;5078618;28;45308;-69
2023/08/22 06:27:31;;;;;;;;;1.75;1.75;;;;;32.74;33.41;101640.13;5079221;27;45260;-69
2023/08/22 06:29:57;;;;;;;;;2.50;2.50;;;;;32.80;33.83;101636.56;5078459;27;45322;-69
2023/08/22 06:32:22;;;;;;;;;1.75;1.75;;;;;32.76;33.23;101643.53;5078787;27;45302;-68
2023/08/22 06:34:48;;;;;;;;;1.75;1.75;;;;;32.63;33.44;101631.19;5078782;28;46860;-69
2023/08/22 06:37:13;;;;;;;;;1.50;1.50;;;;;32.62;33.70;101636.94;5079294;27;45366;-69
2023/08/22 06:39:39;;;;;;;;;1.50;1.50;;;;;32.57;33.68;101614.44;5079031;27;45279;-69
2023/08/22 06:42:05;;;;;;;;;4.75;2.00;;;;;32.56;33.17;101621.91;5078544;27;45361;-69
2023/08/22 06:44:30;;;;;;;;;2.00;2.00;;;;;32.54;33.33;101629.56;5078909;27;45425;-70
2023/08/22 06:46:55;;;;;;;;;3.00;3.00;;;;;32.45;33.77;101608.50;5078540;28;50425;-69
2023/08/22 06:49:21;;;;;;;;;1.75;1.75;;;;;32.56;33.76;101619.13;5079088;27;45325;-70
2023/08/22 06:51:46;;;;;;;;;2.00;2.00;;;;;32.62;33.60;101618.34;5078961;28;45243;-68
2023/08/22 06:54:11;;;;;;;;;2.75;2.75;;;;;32.64;33.44;101624.59;5078606;27;45180;-69
2023/08/22 06:56:36;;;;;;;;;3.00;2.25;;;;;32.67;33.37;101628.88;5078755;28;51771;-69
2023/08/22 06:59:02;;;;;;;;;3.00;1.50;;;;;32.66;33.32;101639.16;5078650;28;45180;-69
2023/08/22 07:01:27;;;;;;;;;3.50;3.50;;;;;32.53;33.75;101619.50;5078633;27;45192;-70
2023/08/22 07:03:52;;;;;;;;;4.00;2.75;;;;;32.48;33.30;101610.91;5078340;28;45371;-69
2023/08/22 07:06:18;;;;;;;;;3.50;2.75;;;;;32.59;33.86;101620.66;5080411;28;45222;-69
2023/08/22 07:08:45;;;;;;;;;4.00;3.00;;;;;32.59;33.96;101635.38;5082409;28;45783;-68
2023/08/22 07:11:10;;;;;;;;;3.50;3.50;;;;;32.60;33.98;101625.16;5081680;28;55412;-69
2023/08/22 07:13:36;;;;;;;;;4.00;4.00;;;;;32.63;33.95;101635.88;5081363;28;56090;-70
2023/08/22 07:16:01;;;;;;;;;5.00;3.00;;;;;32.65;33.71;101634.63;5082165;27;45354;-68
2023/08/22 07:18:28;;;;;;;;;3.00;3.00;;;;;32.69;34.36;101630.44;5080269;28;45245;-71
2023/08/22 07:20:53;;;;;;;;;4.50;3.00;;;;;32.68;33.68;101637.00;5082091;27;45252;-69
2023/08/22 07:23:19;;;;;;;;;2.75;2.75;;;;;32.67;34.26;101643.63;5081642;27;46340;-70
2023/08/22 07:25:49;;;;;;;;;3.25;3.00;;;;;32.68;33.85;101627.81;5082128;27;45394;-70
2023/08/22 07:28:14;;;;;;;;;3.50;2.75;;;;;32.57;33.89;101628.31;5081706;27;45188;-70
2023/08/22 07:30:40;;;;;;;;;4.50;3.25;;;;;32.74;33.76;101621.53;5081856;27;45363;-70
2023/08/22 07:33:06;;;;;;;;;3.25;2.50;;;;;32.79;33.47;101621.81;5081179;27;45447;-70
2023/08/22 07:35:34;;;;;;;;;7.00;4.00;;;;;32.75;33.71;101623.25;5080514;28;45357;-70
2023/08/22 07:37:59;;;;;;;;;3.00;3.00;;;;;32.88;33.45;101630.88;5081813;27;45302;-69
2023/08/22 07:40:24;;;;;;;;;4.00;2.50;;;;;32.99;33.76;101635.94;5081563;27;45342;-69
2023/08/22 07:42:50;;;;;;;;;2.50;2.25;;;;;33.11;33.11;101637.16;5081468;28;46275;-69
2023/08/22 07:45:15;;;;;;;;;4.25;3.00;;;;;32.97;33.17;101624.16;5081091;28;53920;-69
2023/08/22 07:47:40;;;;;;;;;2.00;2.00;;;;;33.00;33.57;101618.22;5081329;28;45357;-69
2023/08/22 07:50:06;;;;;;;;;4.25;4.25;;;;;33.06;33.67;101645.22;5081414;28;45571;-69
2023/08/22 07:52:31;;;;;;;;;4.25;4.00;;;;;33.03;33.07;101638.13;5081363;28;47015;-69
2023/08/22 07:54:57;;;;;;;;;1.75;1.75;;;;;33.17;33.22;101628.03;5081538;27;45437;-69
2023/08/22 07:57:22;;;;;;;;;3.25;3.25;;;;;33.08;33.29;101623.66;5081460;28;45296;-68
2023/08/22 07:59:47;;;;;;;;;4.75;3.50;;;;;33.21;33.17;101634.94;5081572;28;45212;-69
2023/08/22 08:02:13;;;;;;;;;4.00;4.00;;;;;33.23;33.36;101641.19;5080855;27;46126;-69
2023/08/22 08:04:38;;;;;;;;;3.75;3.00;;;;;33.30;33.16;101641.25;5081122;28;45279;-70
2023/08/22 08:07:03;;;;;;;;;3.00;3.00;;;;;33.29;32.90;101637.59;5081214;28;45246;-69
2023/08/22 08:09:29;;;;;;;;;4.00;3.25;;;;;33.33;32.51;101635.31;5081267;28;45231;-69
2023/08/22 08:11:54;;;;;;;;;3.00;3.00;;;;;33.44;33.11;101648.66;5080708;28;45317;-68
2023/08/22 08:14:19;;;;;;;;;3.50;3.50;;;;;33.63;32.64;101649.91;5081017;28;45254;-68
2023/08/22 08:16:45;;;;;;;;;4.50;4.50;;;;;33.81;32.52;101641.97;5080819;28;45307;-70
2023/08/22 08:19:10;;;;;;;;;4.75;4.00;;;;;33.71;32.17;101641.44;5080648;28;53725;-69
2023/08/22 08:21:35;;;;;;;;;4.75;3.00;;;;;33.79;32.61;101649.66;5080787;27;46407;-68
2023/08/22 08:24:04;;;;;;;;;4.00;3.50;;;;;33.70;32.24;101636.91;5081100;27;45244;-68
2023/08/22 08:26:30;;;;;;;;;2.25;2.25;;;;;33.66;32.09;101641.19;5081124;27;45288;-69
2023/08/22 08:28:56;;;;;;;;;6.25;5.00;;;;;33.68;31.91;101639.06;5080941;27;45410;-68
2023/08/22 08:31:21;;;;;;;;;3.50;3.50;;;;;33.83;31.94;101648.22;5080211;27;46101;-69
2023/08/22 08:33:46;;;;;;;;;3.75;3.75;;;;;33.88;31.81;101625.34;5080797;27;45237;-68
2023/08/22 08:36:12;;;;;;;;;3.00;2.00;;;;;33.90;31.78;101639.91;5080902;28;45395;-69
2023/08/22 08:38:37;;;;;;;;;2.75;2.75;;;;;34.01;31.64;101644.94;5080778;28;45471;-69
2023/08/22 08:41:03;;;;;;;;;2.00;2.00;;;;;34.05;31.70;101651.81;5080539;27;45158;-69
2023/08/22 08:43:31;;;;;;;;;2.75;2.75;;;;;34.07;31.78;101644.13;5080820;27;45160;-69
2023/08/22 08:45:57;;;;;;;;;4.75;4.50;;;;;34.18;31.46;101651.91;5080794;27;45335;-70
2023/08/22 08:48:23;;;;;;;;;3.50;3.50;;;;;34.14;31.19;101645.88;5080123;27;45295;-69
2023/08/22 08:50:50;;;;;;;;;2.00;2.00;;;;;34.15;31.15;101649.53;5080184;27;46439;-70
2023/08/22 08:53:16;;;;;;;;;4.00;4.00;;;;;34.27;30.60;101647.94;5080518;27;45346;-69
2023/08/22 08:55:41;;;;;;;;;5.25;4.00;;;;;34.32;30.89;101644.53;5080319;27;45275;-69
2023/08/22 08:58:09;;;;;;;;;3.25;2.75;;;;;34.25;31.17;101624.16;5080496;28;45471;-69
2023/08/22 09:00:36;;;;;;;;;2.50;2.50;;;;;34.28;31.19;101629.31;5080128;27;45208;-69
2023/08/22 09:03:02;;;;;;;;;1.00;1.00;;;;;34.20;31.55;101624.72;5080056;27;45338;-68
2023/08/22 09:05:29;;;;;;;;;3.00;3.00;;;;;34.29;30.50;101633.81;5079579;27;45326;-69
2023/08/22 09:07:55;;;;;;;;;3.50;3.50;;;;;34.28;30.41;101615.41;5079720;28;45345;-68
2023/08/22 09:10:34;;;;;;;;;3.75;3.75;;;;;34.39;30.90;101623.16;5080149;28;46078;-69
2023/08/22 09:13:03;;;;;;;;;3.00;3.00;;;;;34.33;30.48;101619.28;5079568;27;45294;-69
2023/08/22 09:15:30;;;;;;;;;2.75;2.75;;;;;34.35;30.34;101616.31;5080240;27;45479;-69
2023/08/22 09:17:55;;;;;;;;;2.50;2.00;;;;;34.36;30.39;101618.88;5079670;27;45329;-71
2023/08/22 09:20:21;;;;;;;;;2.25;2.00;;;;;34.52;31.09;101624.13;5079854;27;45302;-69
2023/08/22 09:22:46;;;;;;;;;2.50;2.50;;;;;34.31;29.69;101607.50;5080095;28;45255;-70
2023/08/22 09:25:11;;;;;;;;;2.50;2.50;;;;;34.42;30.05;101614.41;5078802;28;45331;-70
2023/08/22 09:27:37;;;;;;;;;4.75;3.25;;;;;34.53;29.97;101620.25;5079701;27;47066;-69
2023/08/22 09:30:05;;;;;;;;;3.25;3.25;;;;;34.59;29.88;101628.84;5079206;27;47267;-68
2023/08/22 09:32:31;;;;;;;;;1.75;1.75;;;;;34.61;29.90;101622.00;5079477;27;45279;-69
2023/08/22 09:35:00;;;;;;;;;2.75;2.00;;;;;34.65;29.99;101620.53;5079644;28;45361;-69
2023/08/22 09:37:33;;;;;;;;;2.50;2.50;;;;;34.67;29.62;101610.03;5079832;27;46044;-69
2023/08/22 09:40:00;;;;;;;;;3.00;3.00;;;;;34.66;29.04;101618.59;5079492;27;46345;-68
2023/08/22 09:42:31;;;;;;;;;2.00;2.00;;;;;34.66;29.57;101630.59;5078334;28;45415;-69
2023/08/22 09:44:57;;;;;;;;;2.00;2.00;;;;;34.71;29.55;101616.88;5079809;27;45279;-69
2023/08/22 09:47:28;;;;;;;;;2.00;2.00;;;;;34.77;29.56;101623.63;5079308;27;45418;-70
2023/08/22 09:49:58;;;;;;;;;3.00;3.00;;;;;34.83;28.99;101620.00;5079370;27;46289;-68
2023/08/22 09:52:26;;;;;;;;;2.75;2.50;;;;;34.92;29.16;101619.59;5079550;27;45354;-70
2023/08/22 09:54:55;;;;;;;;;3.00;3.00;;;;;34.94;29.31;101615.75;5079876;27;45397;-69
2023/08/22 09:57:23;;;;;;;;;2.75;2.75;;;;;35.00;28.92;101626.03;5079427;27;45449;-70
2023/08/22 09:59:51;;;;;;;;;5.75;3.75;;;;;34.98;28.74;101623.47;5079635;27;45246;-69
2023/08/22 10:02:19;;;;;;;;;3.00;3.00;;;;;35.01;28.32;101624.97;5079186;27;45279;-68
2023/08/22 10:04:46;;;;;;;;;1.75;1.75;;;;;34.93;27.91;101620.47;5079303;27;45227;-71
2023/08/22 10:07:11;;;;;;;;;1.75;1.75;;;;;34.95;28.30;101614.69;5079369;27;45478;-70
2023/08/22 10:09:41;;;;;;;;;3.00;3.00;;;;;35.02;28.25;101613.63;5079384;28;45345;-70
2023/08/22 10:12:11;;;;;;;;;2.00;2.00;;;;;35.12;28.53;101608.53;5078859;28;45356;-69
2023/08/22 10:14:44;;;;;;;;;3.00;2.25;;;;;35.03;27.92;101604.19;5079556;27;45188;-70
2023/08/22 10:17:13;;;;;;;;;3.75;1.75;;;;;35.01;28.20;101605.47;5078855;28;45365;-70
2023/08/22 10:19:40;;;;;;;;;2.50;2.50;;;;;35.04;28.97;101593.91;5078424;27;45377;-69
2023/08/22 10:22:07;;;;;;;;;2.00;2.00;;;;;35.21;27.65;101610.03;5079080;27;45350;-69
2023/08/22 10:24:33;;;;;;;;;2.00;2.00;;;;;35.21;27.52;101611.97;5079368;27;45177;-71
2023/08/22 10:27:04;;;;;;;;;2.00;2.00;;;;;35.13;28.32;101595.44;5078958;28;45889;-69
2023/08/22 10:29:38;;;;;;;;;0.00;0.00;;;;;35.19;28.26;101600.16;5079415;27;45342;-69
2023/08/22 10:32:03;;;;;;;;;1.25;1.25;;;;;35.24;27.24;101600.41;5078625;27;45279;-68
2023/08/22 10:34:34;;;;;;;;;2.00;2.00;;;;;35.34;27.39;101609.22;5078973;28;45322;-69
2023/08/22 10:37:02;;;;;;;;;3.50;2.00;;;;;35.40;27.51;101604.72;5077632;28;45331;-70
2023/08/22 10:39:45;;;;;;;;;1.75;1.75;;;;;35.37;27.85;101599.59;5079359;27;45639;-70
2023/08/22 10:42:13;;;;;;;;;2.00;2.00;;;;;35.38;27.66;101591.00;5082484;28;45248;-70
2023/08/22 10:44:42;;;;;;;;;2.25;2.25;;;;;35.37;27.01;101582.84;5082502;28;45346;-68
2023/08/22 10:47:17;;;;;;;;;1.75;1.75;;;;;35.43;27.13;101585.66;5082204;28;45414;-68
2023/08/22 10:49:42;;;;;;;;;6.00;3.00;;;;;35.50;27.23;101586.50;5082155;27;46372;-69
2023/08/22 10:52:12;;;;;;;;;2.00;2.00;;;;;35.59;27.77;101599.16;5082576;27;45449;-68
2023/08/22 10:54:55;;;;;;;;;2.50;2.00;;;;;35.64;27.98;101595.75;5082440;27;45345;-69
2023/08/22 10:57:21;;;;;;;;;1.75;1.75;;;;;35.69;27.54;101592.31;5082439;28;45785;-69
2023/08/22 11:00:21;;;;;;;;;1.25;1.25;;;;;35.64;27.76;101593.78;5082411;28;46465;-70
2023/08/22 11:02:57;;;;;;;;;2.00;2.00;;;;;35.75;27.57;101592.31;5082107;27;45294;-68
2023/08/22 11:05:24;;;;;;;;;2.00;2.00;;;;;35.73;27.55;101591.69;5081978;27;45290;-69
2023/08/22 11:07:50;;;;;;;;;2.25;2.25;;;;;35.78;27.96;101585.47;5082318;28;45369;-69
2023/08/22 11:10:20;;;;;;;;;1.00;1.00;;;;;35.79;27.22;101587.19;5081886;27;46490;-69
2023/08/22 11:12:46;;;;;;;;;2.00;2.00;;;;;35.85;27.46;101583.53;5081818;28;45374;-69
2023/08/22 11:15:16;;;;;;;;;2.25;2.25;;;;;35.91;27.25;101585.44;5082182;27;45516;-69
2023/08/22 11:17:43;;;;;;;;;2.00;2.00;;;;;35.86;27.02;101582.44;5082049;27;45223;-68
2023/08/22 11:20:13;;;;;;;;;2.25;2.25;;;;;35.92;26.82;101585.22;5080136;28;47104;-69
2023/08/22 11:22:43;;;;;;;;;3.00;3.00;;;;;35.99;27.37;101582.41;5082325;27;45203;-69
2023/08/22 11:25:10;;;;;;;;;2.50;2.50;;;;;36.11;27.07;101582.63;5080449;28;45380;-69
2023/08/22 11:27:37;;;;;;;;;2.00;2.00;;;;;36.06;27.19;101572.13;5082028;28;45418;-68
2023/08/22 11:30:03;;;;;;;;;3.25;3.25;;;;;36.06;27.28;101566.53;5081583;27;45315;-69
2023/08/22 11:32:30;;;;;;;;;1.50;1.50;;;;;36.26;27.26;101572.94;5081522;27;45412;-68
2023/08/22 11:34:58;;;;;;;;;2.00;2.00;;;;;36.35;26.87;101576.34;5081975;27;45336;-68
2023/08/22 11:37:25;;;;;;;;;4.00;4.00;;;;;36.39;27.23;101572.91;5081686;27;45442;-69
2023/08/22 11:39:52;;;;;;;;;3.75;3.75;;;;;36.31;27.04;101558.34;5081448;27;46518;-68
2023/08/22 11:42:20;;;;;;;;;1.75;1.75;;;;;36.33;26.78;101561.75;5081676;27;45266;-70
2023/08/22 11:45:22;;;;;;;;;2.75;2.00;;;;;36.51;26.71;101580.59;5081545;28;45220;-70
2023/08/22 11:47:49;;;;;;;;;2.00;2.00;;;;;36.62;27.06;101565.94;5079094;28;45519;-69
2023/08/22 11:50:17;;;;;;;;;3.00;3.00;;;;;36.65;26.77;101562.72;5081533;27;46267;-69
2023/08/22 11:52:44;;;;;;;;;3.50;3.25;;;;;36.64;26.86;101553.47;5080866;27;45394;-69
2023/08/22 11:55:11;;;;;;;;;3.25;3.25;;;;;36.74;26.70;101553.88;5081662;27;45374;-70
2023/08/22 11:57:39;;;;;;;;;3.00;3.00;;;;;36.71;26.48;101540.34;5081361;27;45413;-69
2023/08/22 12:00:06;;;;;;;;;3.00;3.00;;;;;36.84;26.38;101561.75;5081371;27;46230;-68
2023/08/22 12:02:32;;;;;;;;;3.00;3.00;;;;;36.93;26.65;101557.63;5080664;27;45537;-68
2023/08/22 12:04:57;;;;;;;;;3.00;3.00;;;;;37.05;26.60;101560.56;5081194;28;45434;-69
2023/08/22 12:07:23;;;;;;;;;4.00;4.00;;;;;36.91;26.73;101554.22;5081078;28;46123;-69
2023/08/22 12:10:07;;;;;;;;;3.00;3.00;;;;;37.17;26.62;101556.03;5081480;28;46059;-68
2023/08/22 12:12:32;;;;;;;;;4.50;4.50;;;;;37.28;26.55;101557.22;5075310;28;45450;-69
2023/08/22 12:14:59;;;;;;;;;4.25;3.25;;;;;37.36;26.57;101554.13;5081152;27;45432;-68
2023/08/22 12:17:25;;;;;;;;;3.25;3.25;;;;;37.40;27.00;101541.44;5081054;27;45464;-69
2023/08/22 12:19:50;;;;;;;;;1.50;1.25;;;;;37.41;26.40;101545.94;5080824;27;45455;-68
2023/08/22 12:22:15;;;;;;;;;4.75;3.75;;;;;37.55;26.37;101549.47;5081240;28;45354;-69
2023/08/22 12:24:44;;;;;;;;;4.00;4.00;;;;;37.59;26.25;101539.53;5081201;27;45573;-69
2023/08/22 12:27:09;;;;;;;;;2.25;2.25;;;;;37.64;25.97;101540.59;5080991;27;46363;-69
2023/08/22 12:29:35;;;;;;;;;3.25;3.25;;;;;37.65;25.53;101542.31;5080641;27;45317;-69
2023/08/22 12:32:00;;;;;;;;;3.25;3.25;;;;;37.76;25.96;101543.50;5080174;28;56144;-69
2023/08/22 12:34:25;;;;;;;;;2.50;2.50;;;;;37.84;25.92;101527.28;5080938;27;45224;-69
2023/08/22 12:36:51;;;;;;;;;2.00;2.00;;;;;37.94;25.78;101531.47;5080886;28;45862;-70
2023/08/22 12:39:16;;;;;;;;;4.50;3.75;;;;;38.06;26.47;101533.28;5080816;28;45423;-70
2023/08/22 12:41:42;;;;;;;;;3.00;3.00;;;;;38.21;25.26;101538.50;5080382;28;56779;-68
2023/08/22 12:44:07;;;;;;;;;4.00;3.00;;;;;38.23;25.69;101525.13;5080777;28;45393;-69
2023/08/22 12:46:32;;;;;;;;;2.25;2.25;;;;;38.36;25.33;101533.38;5080557;28;45498;-69
2023/08/22 12:48:58;;;;;;;;;3.50;3.50;;;;;38.42;25.55;101531.59;5080495;28;46220;-70
2023/08/22 12:51:23;;;;;;;;;4.50;4.00;;;;;38.27;25.13;101478.78;5080639;27;45351;-69
2023/08/22 12:53:49;;;;;;;;;4.00;4.00;;;;;38.54;26.08;101510.97;5080841;28;45249;-69
2023/08/22 12:56:15;;;;;;;;;3.00;3.00;;;;;38.73;25.67;101513.72;5080552;27;45343;-70
2023/08/22 12:58:40;;;;;;;;;2.50;2.50;;;;;38.89;24.96;101529.88;5080256;27;46221;-68
2023/08/22 13:01:06;;;;;;;;;4.75;4.75;;;;;38.69;24.89;101507.75;5080306;27;45344;-68
2023/08/22 13:03:32;;;;;;;;;4.00;3.00;;;;;38.78;25.16;101516.69;5079070;27;45393;-68
2023/08/22 13:05:58;;;;;;;;;3.75;3.75;;;;;38.75;25.28;101509.59;5066809;28;45223;-68
2023/08/22 13:08:25;;;;;;;;;3.00;3.00;;;;;38.80;25.27;101522.88;5079782;28;46229;-69
2023/08/22 13:10:52;;;;;;;;;3.50;3.50;;;;;38.91;25.28;101503.31;5080349;27;45256;-69
2023/08/22 13:13:17;;;;;;;;;6.00;3.00;;;;;39.01;25.26;101513.97;5079953;28;45523;-69
2023/08/22 13:15:42;;;;;;;;;4.50;3.00;;;;;39.14;24.93;101515.72;5080253;28;45452;-68
2023/08/22 13:18:08;;;;;;;;;4.25;4.25;;;;;39.26;25.05;101502.56;5079727;28;51968;-69
2023/08/22 13:20:33;;;;;;;;;5.00;4.25;;;;;39.35;24.73;101507.59;5080125;28;45302;-68
2023/08/22 13:22:58;;;;;;;;;3.50;3.25;;;;;39.49;25.02;101508.22;5079993;28;45448;-68
2023/08/22 13:25:24;;;;;;;;;3.50;3.50;;;;;39.51;24.09;101491.16;5080180;27;45951;-69
2023/08/22 13:27:49;;;;;;;;;3.25;3.25;;;;;39.60;25.00;101498.13;5080368;28;45328;-69
2023/08/22 13:30:15;;;;;;;;;2.50;2.50;;;;;39.71;24.80;101478.47;5079773;28;55613;-70
2023/08/22 13:32:40;;;;;;;;;4.50;3.00;;;;;39.86;24.57;101494.84;5079550;28;45260;-69
2023/08/22 13:35:08;;;;;;;;;4.50;4.50;;;;;39.94;24.65;101486.03;5079929;28;45333;-68
2023/08/22 13:37:34;;;;;;;;;4.25;3.25;;;;;40.06;24.32;101483.22;5080005;27;47066;-69
2023/08/22 13:40:05;;;;;;;;;5.75;4.00;;;;;40.22;24.04;101484.41;5079628;27;45235;-69
2023/08/22 13:42:30;;;;;;;;;3.25;3.25;;;;;40.28;24.00;101478.66;5078545;28;45362;-69
2023/08/22 13:44:55;;;;;;;;;4.50;4.50;;;;;40.36;23.99;101468.97;5078206;28;45896;-69
2023/08/22 13:47:21;;;;;;;;;3.25;1.50;;;;;40.51;23.65;101486.16;5079834;28;45271;-68
2023/08/22 13:49:46;;;;;;;;;4.75;4.75;;;;;40.66;24.18;101482.81;5079526;27;45326;-69
2023/08/22 13:52:11;;;;;;;;;3.50;3.50;;;;;40.72;23.32;101487.44;5079979;28;45790;-69
2023/08/22 13:54:37;;;;;;;;;4.00;4.00;;;;;40.86;23.31;101477.56;5079205;28;52408;-69
2023/08/22 13:57:03;;;;;;;;;3.00;3.00;;;;;40.91;22.87;101486.13;5079687;28;46424;-69
2023/08/22 13:59:29;;;;;;;;;3.50;3.00;;;;;41.01;23.21;101483.47;5079051;27;45247;-70
2023/08/22 14:01:55;;;;;;;;;2.50;2.50;;;;;40.98;22.58;101469.94;5079259;27;45165;-69
2023/08/22 14:04:20;;;;;;;;;4.50;4.00;;;;;41.10;22.73;101486.75;5079167;27;45319;-68
2023/08/22 14:06:46;;;;;;;;;4.50;2.00;;;;;41.24;23.47;101484.47;5079330;27;45232;-69
2023/08/22 14:09:11;;;;;;;;;4.25;3.25;;;;;41.34;23.29;101467.75;5079518;28;45157;-68
2023/08/22 14:11:36;;;;;;;;;4.50;4.50;;;;;41.40;23.01;101470.41;5079475;28;45241;-69
2023/08/22 14:14:01;;;;;;;;;5.25;4.75;;;;;41.42;23.16;101464.50;5078662;28;53963;-68
2023/08/22 14:16:27;;;;;;;;;3.75;3.75;;;;;41.63;22.49;101468.50;5077680;28;51320;-70
2023/08/22 14:18:52;;;;;;;;;5.25;4.25;;;;;41.69;22.49;101462.69;5078969;28;50583;-69
2023/08/22 14:21:17;;;;;;;;;3.75;3.00;;;;;41.76;22.62;101477.47;5077854;28;45321;-68
2023/08/22 14:23:43;;;;;;;;;3.75;3.75;;;;;41.79;21.88;101462.84;5078813;28;53592;-68
2023/08/22 14:26:08;;;;;;;;;4.00;4.00;;;;;41.89;22.65;101470.59;5079333;28;47642;-69
2023/08/22 14:28:33;;;;;;;;;5.00;3.25;;;;;41.98;22.29;101471.88;5078819;28;54189;-70
2023/08/22 14:30:59;;;;;;;;;3.75;3.75;;;;;41.88;22.63;101461.28;5078933;28;52641;-69
2023/08/22 14:33:25;;;;;;;;;3.75;3.75;;;;;41.89;22.12;101464.94;5078886;28;45424;-69
2023/08/22 14:35:50;;;;;;;;;4.25;4.25;;;;;41.92;22.35;101461.63;5078975;27;46087;-69
2023/08/22 14:38:16;;;;;;;;;4.50;4.00;;;;;42.07;22.68;101461.00;5078943;27;45318;-70
2023/08/22 14:40:52;;;;;;;;;3.25;3.25;;;;;42.22;22.03;101469.63;5078871;28;53441;-69
2023/08/22 14:43:17;;;;;;;;;6.00;4.25;;;;;42.26;21.48;101454.78;5078020;28;45319;-69
2023/08/22 14:45:42;;;;;;;;;3.00;3.00;;;;;42.28;21.38;101451.69;5078336;28;58682;-69
2023/08/22 14:48:08;;;;;;;;;6.00;4.00;;;;;42.59;21.28;101458.56;5078371;28;53782;-70
2023/08/22 14:50:39;;;;;;;;;4.75;4.00;;;;;42.73;21.60;101462.63;5078899;28;45543;-69
2023/08/22 14:53:04;;;;;;;;;3.00;3.00;;;;;42.70;21.15;101462.34;5079142;27;45351;-70
2023/08/22 14:55:30;;;;;;;;;6.25;3.00;;;;;42.83;21.57;101459.97;5078558;28;50409;-70
2023/08/22 14:57:55;;;;;;;;;5.50;4.00;;;;;42.87;21.37;101458.31;5078421;28;45301;-69
2023/08/22 15:00:27;;;;;;;;;4.00;4.00;;;;;42.85;21.86;101463.38;5078615;28;50326;-69
2023/08/22 15:02:52;;;;;;;;;3.25;3.25;;;;;42.92;22.39;101461.19;5076579;28;45288;-69
2023/08/22 15:05:17;;;;;;;;;4.00;4.00;;;;;43.06;21.38;101463.53;5078298;28;48225;-70
2023/08/22 15:07:43;;;;;;;;;4.00;4.00;;;;;43.15;21.33;101460.00;5077953;28;45370;-69
2023/08/22 15:10:08;;;;;;;;;4.25;4.25;;;;;43.09;20.71;101469.50;5079089;27;45330;-70
2023/08/22 15:12:34;;;;;;;;;3.00;3.00;;;;;43.20;20.94;101450.72;5078314;27;45453;-70
2023/08/22 15:14:59;;;;;;;;;3.25;3.25;;;;;43.36;21.27;101447.75;5078627;28;45282;-69
2023/08/22 15:17:25;;;;;;;;;4.00;3.00;;;;;43.50;21.36;101453.75;5078332;27;50061;-69
2023/08/22 15:19:54;;;;;;;;;4.25;4.25;;;;;43.53;20.96;101452.38;5078492;27;45323;-70
2023/08/22 15:22:20;;;;;;;;;5.50;4.75;;;;;43.61;21.21;101451.91;5078747;27;45936;-69
2023/08/22 15:24:45;;;;;;;;;4.00;4.00;;;;;43.72;21.09;101459.31;5078341;27;45255;-70
2023/08/22 15:27:10;;;;;;;;;4.25;4.25;;;;;43.64;20.74;101452.19;5080219;28;49693;-69
2023/08/22 15:29:36;;;;;;;;;4.50;4.50;;;;;43.55;21.00;101436.06;5082193;27;45231;-70
2023/08/22 15:32:01;;;;;;;;;4.25;2.75;;;;;43.67;21.14;101446.00;5081364;27;54068;-69
2023/08/22 15:34:26;;;;;;;;;4.00;4.00;;;;;43.81;20.48;101445.53;5081539;27;46520;-70
2023/08/22 15:36:52;;;;;;;;;4.25;4.00;;;;;43.81;20.24;101437.03;5082114;28;45425;-70
2023/08/22 15:39:17;;;;;;;;;5.75;4.75;;;;;43.83;20.74;101440.41;5081806;28;45209;-69
2023/08/22 15:41:43;;;;;;;;;6.00;4.00;;;;;43.83;20.48;101444.09;5081154;28;45397;-69
2023/08/22 15:44:08;;;;;;;;;5.00;4.00;;;;;43.78;20.05;101446.06;5081413;27;45974;-69
2023/08/22 15:46:33;;;;;;;;;3.75;3.75;;;;;43.49;20.80;101437.94;5080026;28;48748;-69
2023/08/22 15:48:59;;;;;;;;;3.50;3.50;;;;;43.29;21.10;101454.75;5081571;28;45275;-69
2023/08/22 15:51:24;;;;;;;;;4.75;3.25;;;;;43.31;21.49;101444.00;5081987;28;45304;-69
2023/08/22 15:53:49;;;;;;;;;6.00;4.00;;;;;43.32;20.63;101443.75;5080998;27;46133;-69